createdAt,value
2019-03-08T00:01:32.862Z,8.00
2019-03-08T00:05:36.471Z,8.07
2019-03-08T00:09:40.085Z,8.11
2019-03-08T00:13:44.010Z,8.01
2019-03-08T00:17:47.729Z,8.12
2019-03-08T00:21:51.357Z,8.09
2019-03-08T00:25:54.953Z,8.09
2019-03-08T00:29:58.569Z,7.95
2019-03-08T00:34:02.288Z,7.83
2019-03-08T00:38:06.001Z,7.80
2019-03-08T00:42:09.631Z,7.74
2019-03-08T00:46:13.239Z,7.71
2019-03-08T00:50:16.949Z,7.69
2019-03-08T00:54:21.620Z,7.74
2019-03-08T00:58:25.616Z,7.82
2019-03-08T01:02:29.218Z,7.80
2019-03-08T01:06:32.954Z,7.88
2019-03-08T01:10:36.649Z,8.01
2019-03-08T01:14:40.268Z,7.96
2019-03-08T01:18:43.882Z,7.89
2019-03-08T01:22:47.796Z,7.75
2019-03-08T01:26:51.335Z,7.73
2019-03-08T01:30:55.024Z,7.53
2019-03-08T01:34:58.647Z,7.55
2019-03-08T01:39:02.355Z,7.43
2019-03-08T01:43:06.586Z,7.31
2019-03-08T01:47:10.203Z,7.21
2019-03-08T01:51:13.834Z,7.27
2019-03-08T01:55:17.635Z,7.21
2019-03-08T01:59:21.265Z,7.29
2019-03-08T02:03:25.369Z,7.28
2019-03-08T02:07:28.989Z,7.38
2019-03-08T02:11:32.769Z,7.34
2019-03-08T02:15:36.518Z,7.44
2019-03-08T02:19:40.133Z,7.29
2019-03-08T02:23:43.718Z,7.37
2019-03-08T02:27:47.564Z,7.34
2019-03-08T02:31:51.283Z,7.31
2019-03-08T02:35:54.899Z,7.30
2019-03-08T02:39:58.509Z,7.24
2019-03-08T02:44:02.222Z,7.32
2019-03-08T02:48:05.942Z,7.19
2019-03-08T02:52:09.553Z,7.17
2019-03-08T02:56:13.168Z,7.17
2019-03-08T03:00:18.364Z,7.21
2019-03-08T03:04:22.035Z,7.17
2019-03-08T03:08:25.690Z,7.15
2019-03-08T03:12:29.264Z,7.13
2019-03-08T03:16:33.162Z,7.09
2019-03-08T03:20:37.115Z,6.94
2019-03-08T03:24:40.755Z,6.76
2019-03-08T03:28:44.376Z,6.70
2019-03-08T03:32:47.951Z,6.60
2019-03-08T03:36:51.559Z,6.58
2019-03-08T03:40:55.293Z,6.56
2019-03-08T03:44:58.925Z,6.54
2019-03-08T03:49:02.535Z,6.52
2019-03-08T03:53:06.496Z,6.52
2019-03-08T03:57:10.269Z,6.46
2019-03-08T04:01:18.359Z,6.52
2019-03-08T04:05:22.108Z,6.55
2019-03-08T04:09:25.908Z,6.43
2019-03-08T04:13:29.537Z,6.44
2019-03-08T04:17:33.123Z,6.43
2019-03-08T04:21:37.167Z,6.38
2019-03-08T04:25:40.781Z,6.41
2019-03-08T04:29:44.364Z,6.37
2019-03-08T04:33:47.998Z,6.32
2019-03-08T04:37:51.607Z,6.36
2019-03-08T04:41:55.243Z,6.30
2019-03-08T04:45:58.849Z,6.35
2019-03-08T04:50:02.443Z,6.28
2019-03-08T04:54:06.065Z,6.27
2019-03-08T04:58:09.739Z,6.31
2019-03-08T05:02:13.391Z,6.27
2019-03-08T05:06:17.212Z,6.30
2019-03-08T05:10:21.541Z,6.27
2019-03-08T05:14:25.968Z,6.31
2019-03-08T05:18:29.587Z,6.29
2019-03-08T05:22:33.195Z,6.25
2019-03-08T05:26:36.912Z,6.27
2019-03-08T05:30:40.417Z,6.24
2019-03-08T05:34:44.147Z,6.24
2019-03-08T05:38:47.775Z,6.24
2019-03-08T05:42:51.491Z,6.27
2019-03-08T05:46:55.188Z,6.31
2019-03-08T05:50:58.798Z,6.31
2019-03-08T05:55:02.464Z,6.31
2019-03-08T05:59:06.027Z,6.36
2019-03-08T06:03:09.981Z,6.36
2019-03-08T06:07:13.608Z,6.46
2019-03-08T06:11:17.187Z,6.52
2019-03-08T06:15:20.792Z,6.46
2019-03-08T06:19:24.405Z,6.53
2019-03-08T06:23:28.136Z,6.50
2019-03-08T06:27:32.157Z,6.53
2019-03-08T06:31:35.860Z,6.64
2019-03-08T06:35:39.481Z,6.61
2019-03-08T06:39:43.014Z,6.65
2019-03-08T06:43:46.615Z,6.64
2019-03-08T06:47:50.416Z,6.64
2019-03-08T06:51:53.973Z,6.64
2019-03-08T06:55:57.641Z,6.67
2019-03-08T07:00:03.004Z,6.71
2019-03-08T07:04:06.620Z,6.69
2019-03-08T07:08:10.168Z,6.80
2019-03-08T07:12:14.201Z,6.72
2019-03-08T07:16:17.865Z,6.81
2019-03-08T07:20:23.231Z,6.78
2019-03-08T07:24:40.552Z,6.86
2019-03-08T07:28:51.919Z,6.89
2019-03-08T07:33:12.399Z,6.84
2019-03-08T07:37:23.559Z,6.95
2019-03-08T07:41:29.187Z,7.01
2019-03-08T07:45:44.364Z,7.03
2019-03-08T07:49:55.803Z,6.93
2019-03-08T07:54:01.246Z,6.80
2019-03-08T07:58:10.052Z,6.30
2019-03-08T08:02:31.110Z,6.03
2019-03-08T08:06:36.390Z,6.18
2019-03-08T08:10:50.452Z,6.43
2019-03-08T08:14:55.792Z,6.46
2019-03-08T08:19:01.246Z,6.53
2019-03-08T08:23:12.545Z,6.52
2019-03-08T08:27:26.597Z,6.37
2019-03-08T08:31:31.951Z,6.30
2019-03-08T08:35:46.306Z,6.28
2019-03-08T08:40:08.051Z,6.39
2019-03-08T08:44:25.415Z,6.26
2019-03-08T08:48:46.603Z,6.27
2019-03-08T08:52:57.897Z,6.33
2019-03-08T08:57:02.584Z,6.34
2019-03-08T09:01:10.664Z,6.51
2019-03-08T09:05:18.485Z,6.59
2019-03-08T09:09:29.767Z,6.44
2019-03-08T09:13:53.046Z,6.14
2019-03-08T09:18:01.701Z,5.87
2019-03-08T09:22:12.715Z,5.89
2019-03-08T09:26:23.784Z,6.29
2019-03-08T09:30:44.132Z,6.25
2019-03-08T09:34:49.472Z,6.54
2019-03-08T09:39:10.836Z,6.61
2019-03-08T09:43:16.234Z,6.39
2019-03-08T09:47:30.065Z,6.58
2019-03-08T09:51:37.869Z,6.61
2019-03-08T09:55:43.655Z,9.12
2019-03-08T10:00:04.066Z,9.80
2019-03-08T10:04:11.842Z,9.29
2019-03-08T10:08:19.781Z,10.14
2019-03-08T10:12:25.400Z,10.23
2019-03-08T10:16:30.682Z,9.51
2019-03-08T10:20:35.940Z,8.09
2019-03-08T10:24:57.352Z,7.95
2019-03-08T10:29:04.598Z,8.29
2019-03-08T10:33:16.152Z,8.54
2019-03-08T10:37:21.752Z,8.43
2019-03-08T10:41:29.946Z,8.09
2019-03-08T10:45:46.038Z,8.41
2019-03-08T10:49:57.232Z,10.12
2019-03-08T10:54:02.712Z,10.51
2019-03-08T10:58:08.154Z,11.09
2019-03-08T11:02:19.338Z,11.81
2019-03-08T11:06:27.665Z,12.30
2019-03-08T11:10:39.060Z,13.58
2019-03-08T11:15:00.520Z,11.06
2019-03-08T11:19:09.016Z,10.82
2019-03-08T11:23:31.262Z,10.77
2019-03-08T11:27:45.134Z,9.83
2019-03-08T11:31:56.524Z,9.40
2019-03-08T11:36:13.556Z,9.49
2019-03-08T11:40:25.359Z,8.59
2019-03-08T11:44:42.490Z,7.49
2019-03-08T11:48:50.915Z,8.14
2019-03-08T11:52:56.525Z,8.52
2019-03-08T11:57:17.703Z,8.98
2019-03-08T12:01:39.447Z,9.07
2019-03-08T12:06:02.947Z,9.30
2019-03-08T12:10:11.450Z,8.74
2019-03-08T12:14:22.945Z,9.26
2019-03-08T12:18:37.617Z,9.22
2019-03-08T12:22:45.841Z,9.61
2019-03-08T12:27:09.117Z,9.62
2019-03-08T12:31:14.480Z,9.54
2019-03-08T12:35:19.725Z,9.47
2019-03-08T12:39:33.903Z,10.11
2019-03-08T12:43:45.201Z,9.93
2019-03-08T12:47:53.098Z,9.68
2019-03-08T12:52:01.317Z,9.87
2019-03-08T12:56:06.902Z,9.25
2019-03-08T13:00:15.125Z,8.70
2019-03-08T13:04:20.493Z,8.97
2019-03-08T13:08:25.897Z,8.45
2019-03-08T13:12:29.740Z,8.79
2019-03-08T13:16:33.377Z,8.59
2019-03-08T13:20:36.952Z,8.29
2019-03-08T13:24:40.506Z,8.66
2019-03-08T13:28:44.098Z,8.79
2019-03-08T13:32:47.968Z,8.84
2019-03-08T13:36:51.718Z,9.49
2019-03-08T13:40:55.361Z,9.42
2019-03-08T13:44:58.945Z,9.67
2019-03-08T13:49:02.662Z,9.70
2019-03-08T13:53:06.376Z,8.93
2019-03-08T13:57:09.917Z,8.96
2019-03-08T14:01:13.813Z,9.15
2019-03-08T14:05:17.447Z,9.30
2019-03-08T14:09:21.039Z,9.05
2019-03-08T14:13:24.760Z,9.05
2019-03-08T14:17:28.371Z,8.94
2019-03-08T14:21:31.983Z,9.18
2019-03-08T14:25:35.609Z,8.82
2019-03-08T14:29:40.915Z,8.60
2019-03-08T14:33:44.616Z,8.76
2019-03-08T14:37:48.383Z,8.92
2019-03-08T14:41:53.635Z,9.24
2019-03-08T14:46:01.346Z,9.49
2019-03-08T14:50:07.546Z,9.50
2019-03-08T14:54:11.135Z,9.70
2019-03-08T14:58:15.157Z,9.99
2019-03-08T15:02:18.768Z,9.33
2019-03-08T15:06:22.493Z,9.03
2019-03-08T15:10:26.221Z,8.85
2019-03-08T15:14:30.337Z,8.88
2019-03-08T15:18:35.070Z,8.55
2019-03-08T15:22:39.410Z,8.33
2019-03-08T15:26:43.033Z,8.17
2019-03-08T15:30:46.629Z,8.16
2019-03-08T15:34:50.244Z,8.21
2019-03-08T15:38:58.447Z,8.19
2019-03-08T15:42:59.211Z,8.35
2019-03-08T15:47:03.075Z,8.16
2019-03-08T15:51:06.851Z,8.12
2019-03-08T15:55:10.652Z,8.13
2019-03-08T15:59:14.392Z,8.13
2019-03-08T16:03:18.114Z,8.13
2019-03-08T16:07:22.987Z,7.88
2019-03-08T16:11:26.861Z,7.79
2019-03-08T16:15:30.478Z,7.90
2019-03-08T16:19:34.087Z,7.92
2019-03-08T16:23:37.708Z,7.82
2019-03-08T16:27:41.316Z,7.81
2019-03-08T16:31:46.774Z,7.83
2019-03-08T16:35:59.603Z,7.73
2019-03-08T16:40:10.388Z,7.62
2019-03-08T16:44:27.110Z,7.60
2019-03-08T16:48:32.065Z,7.52
2019-03-08T16:52:42.849Z,7.41
2019-03-08T16:56:57.102Z,7.37
2019-03-08T17:01:07.983Z,7.25
2019-03-08T17:05:25.422Z,7.23
2019-03-08T17:09:33.132Z,7.23
2019-03-08T17:13:38.752Z,7.22
2019-03-08T17:18:00.633Z,7.08
2019-03-08T17:22:08.482Z,7.02
2019-03-08T17:26:19.432Z,6.85
2019-03-08T17:30:33.771Z,6.54
2019-03-08T17:34:41.641Z,6.31
2019-03-08T17:38:55.574Z,6.17
2019-03-08T17:43:16.999Z,5.95
2019-03-08T17:47:24.551Z,5.90
2019-03-08T17:51:35.397Z,5.79
2019-03-08T17:55:43.530Z,5.61
2019-03-08T17:59:54.612Z,5.49
2019-03-08T18:03:59.951Z,5.44
2019-03-08T18:08:05.204Z,5.47
2019-03-08T18:12:26.639Z,5.36
2019-03-08T18:16:46.944Z,5.18
2019-03-08T18:21:04.280Z,5.11
2019-03-08T18:25:09.740Z,5.00
2019-03-08T18:29:27.175Z,4.83
2019-03-08T18:33:48.817Z,4.70
2019-03-08T18:38:06.153Z,4.63
2019-03-08T18:42:29.522Z,4.58
2019-03-08T18:46:37.652Z,4.35
2019-03-08T18:50:42.915Z,3.98
2019-03-08T18:54:57.573Z,3.92
2019-03-08T18:59:08.971Z,3.89
2019-03-08T19:03:28.960Z,3.92
2019-03-08T19:07:50.512Z,4.03
2019-03-08T19:11:58.512Z,4.56
2019-03-08T19:16:03.764Z,4.81
2019-03-08T19:20:26.290Z,4.98
2019-03-08T19:24:41.002Z,5.10
2019-03-08T19:28:49.115Z,4.94
2019-03-08T19:32:57.646Z,4.92
2019-03-08T19:37:09.245Z,4.89
2019-03-08T19:41:14.494Z,4.76
2019-03-08T19:45:25.752Z,4.68
2019-03-08T19:49:33.707Z,4.68
2019-03-08T19:53:53.912Z,4.79
2019-03-08T19:58:15.345Z,4.94
2019-03-08T20:02:20.825Z,5.04
2019-03-08T20:06:35.783Z,5.03
2019-03-08T20:10:46.764Z,5.04
2019-03-08T20:14:57.861Z,5.03
2019-03-08T20:19:18.264Z,5.01
2019-03-08T20:23:29.762Z,5.01
2019-03-08T20:27:50.381Z,5.04
2019-03-08T20:32:01.566Z,5.12
2019-03-08T20:36:06.989Z,5.03
2019-03-08T20:40:28.557Z,5.03
2019-03-08T20:44:36.673Z,5.02
2019-03-08T20:48:40.213Z,5.03
2019-03-08T20:52:45.027Z,5.01
2019-03-08T20:56:48.751Z,4.99
2019-03-08T21:00:52.358Z,5.06
2019-03-08T21:04:56.083Z,4.96
2019-03-08T21:08:59.691Z,4.87
2019-03-08T21:13:03.305Z,4.89
2019-03-08T21:17:07.035Z,4.87
2019-03-08T21:21:10.735Z,4.99
2019-03-08T21:25:15.888Z,5.01
2019-03-08T21:29:19.499Z,5.09
2019-03-08T21:33:23.057Z,5.14
2019-03-08T21:37:26.633Z,5.20
2019-03-08T21:41:30.239Z,5.08
2019-03-08T21:45:33.854Z,5.04
2019-03-08T21:49:39.319Z,4.99
2019-03-08T21:53:42.936Z,5.10
2019-03-08T21:57:46.640Z,5.16
2019-03-08T22:01:50.365Z,5.13
2019-03-08T22:05:55.915Z,5.10
2019-03-08T22:10:01.373Z,5.22
2019-03-08T22:14:04.990Z,5.20
2019-03-08T22:18:08.701Z,5.23
2019-03-08T22:22:12.416Z,5.39
2019-03-08T22:26:16.047Z,5.36
2019-03-08T22:30:20.919Z,5.46
2019-03-08T22:34:24.596Z,5.47
2019-03-08T22:38:28.306Z,5.40
2019-03-08T22:42:31.924Z,5.50
2019-03-08T22:46:44.797Z,5.52
2019-03-08T22:50:40.889Z,5.53
2019-03-08T22:54:44.503Z,5.50
2019-03-08T22:58:48.116Z,5.56
2019-03-08T23:02:51.830Z,5.60
2019-03-08T23:06:55.452Z,5.61
2019-03-08T23:10:59.058Z,5.62
2019-03-08T23:15:02.792Z,5.67
2019-03-08T23:19:06.801Z,5.59
2019-03-08T23:23:10.410Z,5.69
2019-03-08T23:27:15.666Z,5.65
2019-03-08T23:31:23.615Z,5.62
2019-03-08T23:35:27.195Z,5.49
2019-03-08T23:39:31.934Z,5.58
2019-03-08T23:43:35.547Z,5.50
2019-03-08T23:47:39.160Z,5.49
2019-03-08T23:51:42.728Z,5.54
2019-03-08T23:55:46.613Z,5.66
2019-03-08T23:59:50.206Z,5.71
